Time;durP1;ratioP1;P1;durP2;ratioP2;P2;SDS_P1;SDS_P2;PMS_P1;PMS_P2;Temp;Humidity;BMP_temperature;BMP_pressure;BME280_temperature;BME280_humidity;BME280_pressure;Samples;Min_cycle;Max_cycle;Signal;HPM_P1;HPM_P2
2022/04/15 00:01:17;;;;;;;0.00;0.00;;;13.20;99.90;;;;;;4990807;28;20027;-66
2022/04/15 00:03:43;;;;;;;0.20;0.20;;;13.20;99.90;;;;;;4990916;28;20360;-66
2022/04/15 00:06:10;;;;;;;0.00;0.00;;;13.20;99.90;;;;;;4957154;28;20040;-66
2022/04/15 00:08:37;;;;;;;0.32;0.32;;;13.10;99.90;;;;;;4989494;28;20053;-66
2022/04/15 00:11:03;;;;;;;0.85;0.85;;;13.10;99.90;;;;;;4973137;28;20562;-66
2022/04/15 00:13:31;;;;;;;0.52;0.52;;;13.10;99.90;;;;;;4973081;28;20045;-66
2022/04/15 00:15:59;;;;;;;0.05;0.05;;;13.10;99.90;;;;;;4990412;28;20030;-66
2022/04/15 00:18:25;;;;;;;0.90;0.90;;;13.10;99.90;;;;;;4989699;28;20090;-66
2022/04/15 00:20:54;;;;;;;0.45;0.45;;;13.10;99.90;;;;;;4993005;28;20509;-66
2022/04/15 00:23:23;;;;;;;0.88;0.55;;;13.10;99.90;;;;;;4976463;28;20053;-66
2022/04/15 00:25:54;;;;;;;0.10;0.10;;;13.00;99.90;;;;;;4976789;28;20034;-66
2022/04/15 00:28:20;;;;;;;0.20;0.20;;;13.00;99.90;;;;;;4993551;28;20076;-66
2022/04/15 00:30:47;;;;;;;0.35;0.35;;;12.90;99.90;;;;;;4976438;28;20030;-66
2022/04/15 00:33:15;;;;;;;0.47;0.45;;;12.90;99.90;;;;;;4976574;28;20030;-66
2022/04/15 00:35:41;;;;;;;2.75;1.33;;;12.80;99.90;;;;;;4976483;28;20034;-67
2022/04/15 00:38:11;;;;;;;0.10;0.10;;;12.80;99.90;;;;;;4975511;28;20031;-66
2022/04/15 00:40:36;;;;;;;0.10;0.10;;;12.80;99.90;;;;;;4976190;28;20038;-66
2022/04/15 00:43:02;;;;;;;0.10;0.10;;;12.80;99.90;;;;;;4976386;28;20065;-66
2022/04/15 00:45:28;;;;;;;0.20;0.20;;;12.70;99.90;;;;;;4976215;28;20042;-66
2022/04/15 00:47:57;;;;;;;1.00;0.70;;;12.60;99.90;;;;;;4959238;28;20022;-66
2022/04/15 00:50:31;;;;;;;2.72;1.55;;;12.60;99.90;;;;;;4976437;28;20039;-66
2022/04/15 00:53:06;;;;;;;0.20;0.20;;;12.60;99.90;;;;;;4976497;28;20124;-67
2022/04/15 00:55:33;;;;;;;2.08;1.65;;;12.60;99.90;;;;;;4977015;28;20068;-66
2022/04/15 00:58:02;;;;;;;2.55;2.15;;;12.50;99.90;;;;;;4992678;28;20041;-66
2022/04/15 01:00:31;;;;;;;0.38;0.30;;;13.00;99.90;;;;;;4993472;28;20034;-66
2022/04/15 01:02:58;;;;;;;0.40;0.40;;;13.00;99.90;;;;;;4976169;28;20040;-66
2022/04/15 01:05:25;;;;;;;3.83;0.60;;;12.80;99.90;;;;;;4976107;28;20812;-66
2022/04/15 01:07:57;;;;;;;1.40;1.30;;;12.60;99.90;;;;;;4950822;28;20368;-65
2022/04/15 01:10:26;;;;;;;0.20;0.20;;;12.30;99.90;;;;;;4973489;28;20035;-65
2022/04/15 01:12:59;;;;;;;1.73;0.57;;;12.10;99.90;;;;;;4973618;28;20063;-67
2022/04/15 01:15:27;;;;;;;0.55;0.13;;;12.10;99.90;;;;;;4949102;29;20059;-65
2022/04/15 01:17:54;;;;;;;0.13;0.13;;;12.20;99.90;;;;;;4936248;29;20035;-65
2022/04/15 01:20:20;;;;;;;0.65;0.65;;;12.20;99.90;;;;;;4937089;29;20094;-65
2022/04/15 01:23:12;;;;;;;0.20;0.20;;;12.20;99.90;;;;;;4937115;29;20066;-65
2022/04/15 01:25:38;;;;;;;0.22;0.22;;;12.10;99.90;;;;;;4954276;29;20033;-65
2022/04/15 01:28:05;;;;;;;0.10;0.10;;;12.00;99.90;;;;;;4951912;29;20074;-65
2022/04/15 01:30:31;;;;;;;0.55;0.55;;;12.00;99.90;;;;;;4953973;29;20027;-66
2022/04/15 01:32:57;;;;;;;0.63;0.60;;;11.90;99.90;;;;;;4951968;28;20033;-66
2022/04/15 01:35:23;;;;;;;0.85;0.85;;;11.80;99.90;;;;;;4953938;29;20113;-66
2022/04/15 01:37:49;;;;;;;0.10;0.10;;;11.80;99.90;;;;;;4953086;29;20047;-66
2022/04/15 01:40:17;;;;;;;0.10;0.10;;;11.80;99.90;;;;;;4953816;29;20535;-66
2022/04/15 01:42:46;;;;;;;0.15;0.15;;;11.80;99.90;;;;;;4936295;29;20039;-66
2022/04/15 01:45:12;;;;;;;0.17;0.17;;;11.70;99.90;;;;;;4952399;28;20062;-65
2022/04/15 01:47:38;;;;;;;0.43;0.43;;;11.70;99.90;;;;;;4953078;29;20058;-65
2022/04/15 01:50:08;;;;;;;0.75;0.75;;;11.70;99.90;;;;;;4953674;29;20475;-65
2022/04/15 01:52:34;;;;;;;0.38;0.38;;;11.80;99.90;;;;;;4953679;29;20031;-66
2022/04/15 01:55:01;;;;;;;1.05;0.95;;;11.70;99.90;;;;;;4953784;29;20046;-65
2022/04/15 01:57:27;;;;;;;3.10;0.73;;;11.70;99.90;;;;;;4952632;29;20596;-65
2022/04/15 01:59:53;;;;;;;5.90;1.20;;;11.70;99.90;;;;;;4953223;29;20432;-67
2022/04/15 02:02:19;;;;;;;0.22;0.22;;;11.60;99.90;;;;;;4952186;29;20035;-67
2022/04/15 02:04:45;;;;;;;0.90;0.55;;;11.60;99.90;;;;;;4953728;29;20023;-67
2022/04/15 02:07:10;;;;;;;0.95;0.40;;;11.60;99.90;;;;;;4952752;29;20099;-65
2022/04/15 02:09:36;;;;;;;0.10;0.10;;;11.60;99.90;;;;;;4953045;29;20043;-65
2022/04/15 02:12:02;;;;;;;3.42;0.65;;;11.60;99.90;;;;;;4953238;29;20031;-65
2022/04/15 02:14:28;;;;;;;5.97;0.82;;;11.60;99.90;;;;;;4953622;28;20042;-66
2022/04/15 02:16:54;;;;;;;1.05;0.50;;;11.50;99.90;;;;;;4971934;28;20035;-65
2022/04/15 02:19:20;;;;;;;0.38;0.38;;;11.30;99.90;;;;;;4972183;28;20614;-66
2022/04/15 02:21:47;;;;;;;0.90;0.85;;;11.30;99.90;;;;;;4972374;28;20125;-66
2022/04/15 02:24:14;;;;;;;0.32;0.32;;;11.30;99.90;;;;;;4972402;28;20405;-66
2022/04/15 02:26:40;;;;;;;0.15;0.15;;;11.20;99.90;;;;;;4954758;28;20027;-66
2022/04/15 02:29:06;;;;;;;0.30;0.30;;;11.30;99.90;;;;;;4971657;28;20371;-66
2022/04/15 02:31:32;;;;;;;1.25;1.15;;;11.30;99.90;;;;;;4954964;28;20098;-65
2022/04/15 02:33:58;;;;;;;0.30;0.30;;;11.30;99.90;;;;;;4972296;28;20475;-66
2022/04/15 02:36:24;;;;;;;1.00;0.88;;;11.20;99.90;;;;;;4970227;28;20046;-65
2022/04/15 02:38:49;;;;;;;1.17;0.93;;;11.00;99.90;;;;;;4954400;28;20027;-65
2022/04/15 02:41:16;;;;;;;0.00;0.00;;;11.00;99.90;;;;;;4954849;28;20043;-65
2022/04/15 02:43:42;;;;;;;0.90;0.90;;;10.90;99.90;;;;;;4953663;28;20038;-66
2022/04/15 02:46:12;;;;;;;0.10;0.10;;;10.80;99.90;;;;;;4971842;28;20030;-65
2022/04/15 02:48:38;;;;;;;2.28;1.45;;;10.80;99.90;;;;;;4972282;28;20370;-65
2022/04/15 02:51:04;;;;;;;0.70;0.60;;;10.90;99.90;;;;;;4954540;28;20546;-65
2022/04/15 02:53:31;;;;;;;0.75;0.75;;;10.90;99.90;;;;;;4971762;28;20038;-65
2022/04/15 02:55:57;;;;;;;0.43;0.43;;;10.80;99.90;;;;;;4954678;28;20368;-65
2022/04/15 02:58:24;;;;;;;1.42;1.33;;;10.90;99.90;;;;;;4970824;28;20026;-65
2022/04/15 03:00:50;;;;;;;0.38;0.38;;;10.90;99.90;;;;;;4954448;28;20035;-65
2022/04/15 03:03:16;;;;;;;0.10;0.10;;;11.00;99.90;;;;;;4954378;28;20102;-65
2022/04/15 03:05:42;;;;;;;1.02;1.00;;;11.00;99.90;;;;;;4970252;28;20456;-65
2022/04/15 03:08:08;;;;;;;2.75;1.05;;;11.00;99.90;;;;;;4953748;28;20074;-65
2022/04/15 03:10:35;;;;;;;0.52;0.52;;;11.00;99.90;;;;;;4954077;28;20065;-65
2022/04/15 03:13:01;;;;;;;4.68;1.85;;;11.00;99.90;;;;;;4971896;28;20030;-65
2022/04/15 03:15:27;;;;;;;0.52;0.52;;;11.00;99.90;;;;;;4961624;28;20069;-65
2022/04/15 03:17:53;;;;;;;0.08;0.08;;;11.10;99.90;;;;;;4934234;29;20066;-65
2022/04/15 03:20:21;;;;;;;0.93;0.88;;;11.00;99.90;;;;;;4952015;29;20038;-65
2022/04/15 03:22:47;;;;;;;0.50;0.50;;;11.00;99.90;;;;;;4935321;29;20054;-65
2022/04/15 03:25:17;;;;;;;0.52;0.52;;;10.90;99.90;;;;;;4952181;29;20039;-65
2022/04/15 03:27:46;;;;;;;0.28;0.28;;;10.90;99.90;;;;;;4934621;29;20034;-65
2022/04/15 03:30:14;;;;;;;0.95;0.95;;;10.90;99.90;;;;;;4935402;29;20039;-65
2022/04/15 03:32:51;;;;;;;0.15;0.13;;;10.90;99.90;;;;;;4935320;29;20073;-65
2022/04/15 03:35:20;;;;;;;15.20;1.77;;;10.80;99.90;;;;;;4952397;29;20035;-66
2022/04/15 03:37:50;;;;;;;0.10;0.10;;;10.80;99.90;;;;;;4951426;29;20475;-65
2022/04/15 03:40:17;;;;;;;0.40;0.38;;;10.70;99.90;;;;;;4934843;29;20039;-65
2022/04/15 03:42:51;;;;;;;1.15;0.95;;;10.70;99.90;;;;;;4952065;29;20555;-65
2022/04/15 03:45:19;;;;;;;1.27;1.13;;;10.70;99.90;;;;;;4951827;29;20046;-65
2022/04/15 03:47:54;;;;;;;0.08;0.08;;;10.70;99.90;;;;;;4934234;29;20030;-64
2022/04/15 03:50:21;;;;;;;0.82;0.82;;;10.60;99.90;;;;;;4934854;29;20043;-64
2022/04/15 03:52:48;;;;;;;0.45;0.45;;;10.60;99.90;;;;;;4934854;29;20164;-64
2022/04/15 03:55:17;;;;;;;1.38;1.05;;;10.50;99.90;;;;;;4936976;29;20031;-67
2022/04/15 03:57:43;;;;;;;0.20;0.20;;;10.50;99.90;;;;;;4955290;29;20038;-64
2022/04/15 04:00:14;;;;;;;0.30;0.30;;;10.50;99.90;;;;;;4938380;29;20047;-64
2022/04/15 04:02:43;;;;;;;0.43;0.43;;;10.40;99.90;;;;;;4955611;29;20043;-65
2022/04/15 04:05:10;;;;;;;0.30;0.30;;;10.30;99.90;;;;;;4955406;29;20395;-65
2022/04/15 04:07:36;;;;;;;1.45;1.05;;;10.20;99.90;;;;;;4937604;29;20027;-64
2022/04/15 04:10:02;;;;;;;0.75;0.75;;;10.20;99.90;;;;;;4922309;29;20050;-64
2022/04/15 04:12:33;;;;;;;0.38;0.38;;;10.20;99.90;;;;;;4938192;29;20035;-64
2022/04/15 04:15:00;;;;;;;5.72;1.08;;;10.20;99.90;;;;;;4944722;28;20121;-64
2022/04/15 04:17:26;;;;;;;0.00;0.00;;;10.20;99.90;;;;;;4973741;28;20034;-64
2022/04/15 04:19:52;;;;;;;0.52;0.52;;;10.20;99.90;;;;;;4974560;28;20034;-65
2022/04/15 04:22:18;;;;;;;3.50;2.13;;;10.20;99.90;;;;;;4974837;28;20050;-65
2022/04/15 04:24:43;;;;;;;0.15;0.15;;;10.10;99.90;;;;;;4974564;28;20057;-65
2022/04/15 04:27:09;;;;;;;4.57;2.40;;;10.10;99.90;;;;;;4956291;28;20033;-65
2022/04/15 04:29:35;;;;;;;0.10;0.10;;;10.10;99.90;;;;;;4974527;28;20030;-65
2022/04/15 04:32:00;;;;;;;2.10;1.15;;;10.10;99.90;;;;;;4957072;28;20031;-65
2022/04/15 04:34:27;;;;;;;3.55;0.98;;;10.10;99.90;;;;;;4974198;28;20387;-65
2022/04/15 04:36:53;;;;;;;0.73;0.73;;;10.10;99.90;;;;;;4973523;28;20026;-65
2022/04/15 04:39:18;;;;;;;0.43;0.43;;;10.10;99.90;;;;;;4974223;28;20093;-65
2022/04/15 04:41:44;;;;;;;0.35;0.35;;;10.10;99.90;;;;;;4974469;28;20027;-65
2022/04/15 04:44:10;;;;;;;1.38;1.27;;;10.10;99.90;;;;;;4974073;28;20023;-65
2022/04/15 04:46:36;;;;;;;1.48;1.38;;;10.10;99.90;;;;;;4956080;28;20411;-65
2022/04/15 04:49:02;;;;;;;0.10;0.10;;;10.10;99.90;;;;;;4974062;28;20030;-64
2022/04/15 04:51:28;;;;;;;0.63;0.60;;;10.10;99.90;;;;;;4974165;28;20031;-65
2022/04/15 04:53:54;;;;;;;0.73;0.73;;;10.10;99.90;;;;;;4956765;28;20069;-65
2022/04/15 04:56:19;;;;;;;2.45;1.20;;;10.20;99.90;;;;;;4973274;28;20058;-64
2022/04/15 04:58:45;;;;;;;2.72;1.55;;;10.20;99.90;;;;;;4956885;28;20031;-65
2022/04/15 05:01:11;;;;;;;1.30;0.95;;;10.20;99.90;;;;;;4973690;28;20035;-65
2022/04/15 05:03:36;;;;;;;1.05;0.95;;;10.30;99.90;;;;;;4956729;28;20054;-65
2022/04/15 05:06:03;;;;;;;1.75;1.33;;;10.30;99.90;;;;;;4973420;28;20575;-65
2022/04/15 05:08:29;;;;;;;0.50;0.50;;;10.30;99.90;;;;;;4955863;28;20030;-65
2022/04/15 05:10:54;;;;;;;1.83;1.17;;;10.30;99.90;;;;;;4973764;28;20037;-65
2022/04/15 05:13:20;;;;;;;0.60;0.60;;;10.40;99.90;;;;;;4973615;28;20027;-65
2022/04/15 05:15:46;;;;;;;1.17;1.08;;;10.40;99.90;;;;;;4960885;28;20035;-65
2022/04/15 05:18:12;;;;;;;1.08;1.02;;;10.50;99.90;;;;;;4953401;29;20035;-65
2022/04/15 05:20:37;;;;;;;4.78;1.77;;;10.50;99.90;;;;;;4954129;29;20035;-65
2022/04/15 05:23:04;;;;;;;2.10;1.65;;;10.60;99.90;;;;;;4954062;29;20035;-65
2022/04/15 05:25:29;;;;;;;0.90;0.88;;;10.60;99.90;;;;;;4936966;29;20062;-65
2022/04/15 05:27:58;;;;;;;1.30;1.05;;;10.60;99.90;;;;;;4953050;29;20058;-64
2022/04/15 05:30:25;;;;;;;0.70;0.70;;;10.70;99.90;;;;;;4953978;29;20061;-64
2022/04/15 05:32:51;;;;;;;1.65;1.48;;;10.70;99.90;;;;;;4954028;29;20027;-65
2022/04/15 05:35:17;;;;;;;1.55;0.82;;;10.70;99.90;;;;;;4954022;29;20130;-67
2022/04/15 05:37:42;;;;;;;0.75;0.75;;;10.70;99.90;;;;;;4936015;29;20471;-65
2022/04/15 05:40:09;;;;;;;2.25;1.08;;;10.70;99.90;;;;;;4953981;29;20110;-66
2022/04/15 05:42:35;;;;;;;2.92;1.05;;;10.70;99.90;;;;;;4936479;29;20031;-66
2022/04/15 05:45:00;;;;;;;0.30;0.30;;;10.80;99.90;;;;;;4953324;29;20142;-65
2022/04/15 05:47:26;;;;;;;1.65;1.38;;;10.80;99.90;;;;;;4952791;29;20110;-64
2022/04/15 05:49:52;;;;;;;1.17;1.08;;;10.80;99.90;;;;;;4955473;28;20759;-63
2022/04/15 05:52:18;;;;;;;0.55;0.55;;;10.80;99.90;;;;;;4943721;28;20047;-63
2022/04/15 05:54:43;;;;;;;2.80;1.05;;;10.90;99.90;;;;;;4961470;28;20042;-63
2022/04/15 05:57:09;;;;;;;2.75;2.55;;;10.90;99.90;;;;;;4972628;28;20031;-64
2022/04/15 05:59:35;;;;;;;0.88;0.77;;;11.00;99.90;;;;;;4954863;28;20218;-63
2022/04/15 06:02:01;;;;;;;0.63;0.63;;;11.00;99.90;;;;;;4967056;28;20084;-64
2022/04/15 06:04:27;;;;;;;2.58;1.20;;;11.00;99.90;;;;;;4971248;28;20031;-64
2022/04/15 06:06:53;;;;;;;5.75;1.50;;;11.10;99.90;;;;;;4971904;28;20053;-65
2022/04/15 06:09:18;;;;;;;1.50;1.40;;;11.10;99.90;;;;;;4954982;28;20387;-65
2022/04/15 06:11:44;;;;;;;0.63;0.63;;;11.20;99.90;;;;;;4972471;28;20168;-65
2022/04/15 06:14:10;;;;;;;1.17;1.08;;;11.20;99.90;;;;;;4972233;28;20490;-65
2022/04/15 06:16:38;;;;;;;1.02;0.63;;;11.20;99.90;;;;;;4971571;28;20031;-65
2022/04/15 06:19:05;;;;;;;5.70;1.00;;;11.30;99.90;;;;;;4972317;28;20027;-65
2022/04/15 06:21:32;;;;;;;0.75;0.75;;;11.40;99.90;;;;;;4986501;28;20639;-65
2022/04/15 06:23:58;;;;;;;1.33;1.23;;;11.40;99.90;;;;;;4991414;28;20030;-65
2022/04/15 06:26:25;;;;;;;0.22;0.22;;;11.50;99.90;;;;;;4973715;28;20056;-65
2022/04/15 06:28:50;;;;;;;5.22;1.58;;;11.70;99.90;;;;;;4973856;28;20037;-66
2022/04/15 06:31:16;;;;;;;2.92;1.85;;;11.80;99.90;;;;;;4991767;28;20022;-67
2022/04/15 06:33:42;;;;;;;6.95;2.10;;;12.00;99.90;;;;;;4991717;28;20030;-68
2022/04/15 06:36:08;;;;;;;0.32;0.32;;;12.20;99.90;;;;;;4991030;28;20570;-68
2022/04/15 06:38:34;;;;;;;5.40;3.38;;;12.30;99.90;;;;;;4990414;28;20048;-65
2022/04/15 06:41:00;;;;;;;0.90;0.68;;;12.40;99.90;;;;;;4989757;28;20169;-65
2022/04/15 06:43:26;;;;;;;0.60;0.60;;;12.60;99.90;;;;;;4973589;28;20026;-64
2022/04/15 06:45:52;;;;;;;3.55;1.65;;;12.70;99.90;;;;;;4991329;28;20048;-65
2022/04/15 06:48:17;;;;;;;1.33;1.00;;;12.90;99.90;;;;;;4990083;28;20538;-66
2022/04/15 06:50:43;;;;;;;3.88;2.90;;;13.00;99.90;;;;;;4991265;28;20151;-68
2022/04/15 06:53:10;;;;;;;2.38;1.83;;;13.10;99.90;;;;;;4973967;28;20118;-66
2022/04/15 06:55:36;;;;;;;1.15;1.10;;;13.20;99.90;;;;;;4991168;28;20045;-66
2022/04/15 06:58:02;;;;;;;0.90;0.65;;;13.40;99.90;;;;;;4990350;28;20034;-66
2022/04/15 07:00:28;;;;;;;2.17;1.98;;;13.40;99.90;;;;;;4991133;28;20125;-65
2022/04/15 07:02:54;;;;;;;3.15;1.23;;;13.60;99.90;;;;;;4990803;28;20110;-65
2022/04/15 07:05:20;;;;;;;0.10;0.10;;;13.70;99.90;;;;;;4991188;28;20109;-65
2022/04/15 07:07:48;;;;;;;0.60;0.43;;;13.80;99.90;;;;;;4989750;28;20039;-66
2022/04/15 07:10:14;;;;;;;1.00;1.00;;;14.00;99.90;;;;;;4989596;28;20041;-65
2022/04/15 07:12:40;;;;;;;1.55;1.08;;;14.10;99.90;;;;;;4991114;28;20483;-65
2022/04/15 07:15:07;;;;;;;0.68;0.68;;;14.10;99.90;;;;;;4973889;28;20031;-65
2022/04/15 07:17:33;;;;;;;13.35;2.95;;;14.20;99.90;;;;;;4972780;28;20169;-65
2022/04/15 07:19:58;;;;;;;2.22;1.58;;;14.30;99.90;;;;;;4990447;28;20633;-65
2022/04/15 07:22:24;;;;;;;2.22;2.00;;;14.30;99.90;;;;;;4990872;28;20034;-65
2022/04/15 07:24:50;;;;;;;4.63;1.23;;;14.40;99.90;;;;;;4990619;28;20062;-65
2022/04/15 07:27:16;;;;;;;1.17;1.08;;;14.50;99.90;;;;;;4989815;28;20026;-67
2022/04/15 07:29:44;;;;;;;18.95;2.50;;;14.50;99.90;;;;;;4974463;28;20037;-66
2022/04/15 07:32:10;;;;;;;0.73;0.73;;;14.60;99.90;;;;;;4994984;28;20031;-66
2022/04/15 07:34:36;;;;;;;0.70;0.70;;;14.70;99.90;;;;;;4994611;28;20034;-66
2022/04/15 07:37:03;;;;;;;1.05;0.95;;;14.90;99.90;;;;;;4960518;28;20035;-66
2022/04/15 07:39:29;;;;;;;1.25;1.15;;;14.90;99.90;;;;;;4976950;28;20045;-66
2022/04/15 07:41:55;;;;;;;1.77;1.35;;;15.00;99.90;;;;;;4977599;28;20026;-66
2022/04/15 07:44:21;;;;;;;4.13;1.13;;;15.10;99.90;;;;;;4977068;28;20026;-66
2022/04/15 07:46:48;;;;;;;6.32;1.73;;;15.10;99.90;;;;;;4993828;28;20113;-66
2022/04/15 07:49:14;;;;;;;3.22;2.13;;;15.20;99.90;;;;;;4994011;28;20081;-66
2022/04/15 07:51:40;;;;;;;1.50;1.30;;;15.30;99.90;;;;;;4976765;28;20628;-66
2022/04/15 07:54:08;;;;;;;0.45;0.45;;;15.40;99.90;;;;;;4972565;28;20105;-66
2022/04/15 07:56:34;;;;;;;2.67;1.75;;;15.50;99.90;;;;;;4955249;29;20035;-65
2022/04/15 07:59:02;;;;;;;0.30;0.30;;;15.60;99.90;;;;;;4938482;29;20028;-68
2022/04/15 08:01:27;;;;;;;3.72;0.93;;;15.80;99.90;;;;;;4965019;28;20042;-69
2022/04/15 08:03:57;;;;;;;0.82;0.82;;;15.90;99.90;;;;;;4974985;28;20035;-68
2022/04/15 08:06:24;;;;;;;0.88;0.88;;;16.10;99.90;;;;;;4973766;28;20027;-68
2022/04/15 08:08:55;;;;;;;0.63;0.63;;;16.20;99.90;;;;;;4957295;28;20034;-67
2022/04/15 08:11:25;;;;;;;0.93;0.70;;;16.40;99.90;;;;;;4958206;28;20031;-66
2022/04/15 08:13:52;;;;;;;0.30;0.30;;;16.30;99.90;;;;;;4957552;28;20086;-67
2022/04/15 08:16:18;;;;;;;3.53;1.65;;;16.60;99.90;;;;;;4973892;28;20137;-68
2022/04/15 08:18:44;;;;;;;0.93;0.85;;;16.80;99.90;;;;;;4974505;28;20035;-69
2022/04/15 08:21:10;;;;;;;1.50;1.40;;;16.90;99.90;;;;;;4986034;28;20034;-67
2022/04/15 08:23:36;;;;;;;0.35;0.35;;;16.80;99.90;;;;;;4993931;28;20053;-67
2022/04/15 08:26:02;;;;;;;1.65;0.60;;;16.80;99.90;;;;;;4993649;28;20375;-67
2022/04/15 08:28:27;;;;;;;0.55;0.55;;;16.90;99.90;;;;;;4992860;28;20367;-66
2022/04/15 08:30:53;;;;;;;1.15;1.05;;;17.00;99.90;;;;;;4993549;28;20038;-67
2022/04/15 08:33:20;;;;;;;0.65;0.65;;;17.00;99.90;;;;;;4993514;28;20118;-66
2022/04/15 08:35:47;;;;;;;0.90;0.90;;;17.10;99.90;;;;;;4993133;28;20077;-66
2022/04/15 08:38:13;;;;;;;0.68;0.63;;;17.30;99.90;;;;;;4992744;28;20040;-65
2022/04/15 08:40:46;;;;;;;5.75;0.70;;;17.40;99.90;;;;;;4992720;28;20035;-67
2022/04/15 08:43:12;;;;;;;0.40;0.35;;;17.50;99.90;;;;;;4975938;28;20030;-65
2022/04/15 08:45:41;;;;;;;0.20;0.20;;;17.70;99.90;;;;;;4993209;28;20030;-65
2022/04/15 08:48:08;;;;;;;1.55;1.45;;;17.70;99.90;;;;;;4992336;28;20030;-65
2022/04/15 08:50:35;;;;;;;0.40;0.40;;;17.70;99.90;;;;;;4993272;28;20444;-65
2022/04/15 08:53:04;;;;;;;0.25;0.10;;;17.70;99.90;;;;;;4975881;28;20045;-66
2022/04/15 08:55:30;;;;;;;0.20;0.20;;;17.80;99.90;;;;;;4975449;28;20034;-67
2022/04/15 08:57:57;;;;;;;1.10;0.90;;;18.00;99.90;;;;;;4974784;28;20037;-64
2022/04/15 09:00:25;;;;;;;0.70;0.57;;;18.00;99.90;;;;;;4993021;28;20171;-65
2022/04/15 09:02:53;;;;;;;0.65;0.63;;;17.80;99.60;;;;;;4992791;28;20492;-63
2022/04/15 09:05:26;;;;;;;1.08;0.90;;;17.80;99.20;;;;;;4976037;28;20034;-65
2022/04/15 09:08:02;;;;;;;0.30;0.30;;;17.60;99.70;;;;;;4991893;28;20398;-63
2022/04/15 09:10:27;;;;;;;1.00;0.70;;;17.60;99.90;;;;;;4991068;28;20038;-63
2022/04/15 09:12:53;;;;;;;6.07;1.00;;;17.60;99.90;;;;;;4990711;28;20508;-63
2022/04/15 09:15:19;;;;;;;0.45;0.45;;;17.70;99.90;;;;;;4973778;28;20041;-63
2022/04/15 09:17:52;;;;;;;0.68;0.68;;;17.80;99.80;;;;;;4991236;28;20117;-62
2022/04/15 09:20:19;;;;;;;6.60;1.48;;;17.90;99.10;;;;;;4992644;28;20498;-62
2022/04/15 09:22:46;;;;;;;0.52;0.52;;;17.80;98.70;;;;;;4975404;28;20029;-62
2022/04/15 09:25:13;;;;;;;2.45;1.13;;;17.90;99.00;;;;;;4975569;28;20383;-63
2022/04/15 09:27:40;;;;;;;0.65;0.57;;;17.90;98.30;;;;;;4974293;28;20140;-63
2022/04/15 09:30:06;;;;;;;0.82;0.82;;;18.00;99.10;;;;;;4992776;28;20030;-63
2022/04/15 09:32:32;;;;;;;1.90;1.15;;;18.20;98.40;;;;;;4992970;28;20026;-63
2022/04/15 09:35:06;;;;;;;0.20;0.20;;;18.40;97.90;;;;;;4992986;28;20034;-64
2022/04/15 09:37:40;;;;;;;0.50;0.50;;;18.50;97.30;;;;;;4991870;28;20049;-63
2022/04/15 09:40:27;;;;;;;0.75;0.75;;;18.60;97.40;;;;;;4975426;28;20033;-63
2022/04/15 09:42:58;;;;;;;0.95;0.88;;;18.70;96.00;;;;;;4960057;28;20022;-63
2022/04/15 09:45:37;;;;;;;0.08;0.08;;;18.80;95.90;;;;;;4970803;28;20102;-63
2022/04/15 09:48:12;;;;;;;1.67;1.00;;;18.90;95.00;;;;;;4970986;28;20372;-63
2022/04/15 09:50:44;;;;;;;0.70;0.57;;;18.80;95.20;;;;;;4956384;28;20121;-63
2022/04/15 09:53:17;;;;;;;0.45;0.35;;;18.80;94.90;;;;;;4971225;28;20066;-62
2022/04/15 09:55:50;;;;;;;1.25;0.35;;;18.90;95.10;;;;;;4973006;28;20027;-62
2022/04/15 09:58:28;;;;;;;2.17;1.13;;;19.00;94.80;;;;;;4971875;28;20082;-62
2022/04/15 10:00:58;;;;;;;0.80;0.57;;;19.10;94.40;;;;;;4972596;28;20493;-63
2022/04/15 10:03:26;;;;;;;0.57;0.50;;;19.30;94.30;;;;;;4972939;28;20053;-63
2022/04/15 10:05:56;;;;;;;0.00;0.00;;;19.60;93.70;;;;;;4972376;28;20495;-63
2022/04/15 10:08:23;;;;;;;0.50;0.50;;;19.40;93.90;;;;;;4971333;28;20078;-63
2022/04/15 10:10:51;;;;;;;0.43;0.15;;;19.60;92.90;;;;;;4972511;28;20110;-63
2022/04/15 10:13:17;;;;;;;0.10;0.10;;;19.80;93.10;;;;;;4955220;28;20039;-63
2022/04/15 10:15:45;;;;;;;0.77;0.77;;;19.70;92.20;;;;;;4955100;28;20037;-62
2022/04/15 10:18:11;;;;;;;0.57;0.43;;;19.70;91.90;;;;;;4971652;28;20125;-62
2022/04/15 10:20:38;;;;;;;0.00;0.00;;;19.50;92.30;;;;;;4979844;28;20034;-62
2022/04/15 10:23:11;;;;;;;0.38;0.38;;;19.60;92.00;;;;;;4991976;28;20474;-62
2022/04/15 10:25:42;;;;;;;1.13;0.32;;;19.70;91.60;;;;;;4974622;28;20030;-62
2022/04/15 10:28:10;;;;;;;;;;;19.90;90.90;;;;;;4974464;28;20023;-62
2022/04/15 10:30:37;;;;;;;0.38;0.32;;;19.80;90.40;;;;;;4974425;28;19964;-63
2022/04/15 10:33:04;;;;;;;0.10;0.10;;;20.10;89.30;;;;;;4991824;28;20117;-63
2022/04/15 10:35:34;;;;;;;0.22;0.22;;;20.00;85.20;;;;;;4991505;28;20061;-62
2022/04/15 10:38:11;;;;;;;0.65;0.55;;;19.80;85.80;;;;;;4973052;28;20489;-63
2022/04/15 10:40:43;;;;;;;0.00;0.00;;;20.00;86.20;;;;;;4975478;28;20117;-63
2022/04/15 10:43:28;;;;;;;0.25;0.20;;;20.10;85.70;;;;;;4991585;28;20031;-64
2022/04/15 10:46:14;;;;;;;0.03;0.03;;;20.30;85.30;;;;;;4991769;28;20092;-63
2022/04/15 10:48:41;;;;;;;0.05;0.05;;;20.20;84.00;;;;;;4991186;28;20117;-63
2022/04/15 10:51:35;;;;;;;0.22;0.22;;;20.20;81.50;;;;;;4990774;28;20049;-64
2022/04/15 10:54:35;;;;;;;0.10;0.10;;;20.30;81.80;;;;;;4991195;28;20054;-63
2022/04/15 10:57:20;;;;;;;0.00;0.00;;;20.50;84.00;;;;;;4990552;28;20041;-64
2022/04/15 11:02:47;;;;;;;0.73;0.25;;;20.70;79.70;;;;;;4991152;28;20026;-63
2022/04/15 11:05:43;;;;;;;0.00;0.00;;;20.90;78.40;;;;;;4990621;28;20038;-63
2022/04/15 11:08:17;;;;;;;0.00;0.00;;;21.00;77.60;;;;;;4981216;28;20097;-64
2022/04/15 11:10:55;;;;;;;0.00;0.00;;;21.00;75.50;;;;;;4991111;28;20041;-64
2022/04/15 11:13:32;;;;;;;0.00;0.00;;;21.10;75.00;;;;;;4991111;28;20402;-63
2022/04/15 11:16:04;;;;;;;0.28;0.20;;;21.00;73.70;;;;;;4990995;28;20037;-63
2022/04/15 11:18:55;;;;;;;0.00;0.00;;;21.10;73.60;;;;;;4990167;28;20578;-63
2022/04/15 11:21:27;;;;;;;;;;;21.00;73.40;;;;;;4975154;28;20023;-63
2022/04/15 11:24:04;;;;;;;0.52;0.47;;;21.20;73.00;;;;;;4990901;28;19980;-64
2022/04/15 11:26:31;;;;;;;0.00;0.00;;;21.00;72.80;;;;;;4990235;28;20030;-63
2022/04/15 11:29:02;;;;;;;0.05;0.03;;;21.30;73.90;;;;;;4990855;28;20085;-64
2022/04/15 11:31:33;;;;;;;0.00;0.00;;;21.20;74.20;;;;;;4973832;28;20064;-64
2022/04/15 11:34:15;;;;;;;0.52;0.45;;;21.50;73.10;;;;;;4990885;28;20034;-63
2022/04/15 11:36:48;;;;;;;0.10;0.10;;;21.30;72.50;;;;;;4973186;28;20056;-64
2022/04/15 11:39:22;;;;;;;0.08;0.08;;;21.40;72.30;;;;;;4989178;28;20506;-64
2022/04/15 11:41:57;;;;;;;0.00;0.00;;;21.50;73.10;;;;;;4956061;28;20074;-64
2022/04/15 11:44:27;;;;;;;0.38;0.38;;;21.70;71.60;;;;;;4971464;28;20484;-64
2022/04/15 11:46:53;;;;;;;1.88;0.88;;;21.90;71.00;;;;;;4953934;28;20041;-64
2022/04/15 11:49:27;;;;;;;0.10;0.10;;;22.10;68.80;;;;;;4970624;28;20121;-64
2022/04/15 11:51:56;;;;;;;0.10;0.10;;;21.90;70.20;;;;;;4954641;28;20451;-64
2022/04/15 11:54:32;;;;;;;0.05;0.05;;;21.80;69.40;;;;;;4971413;28;20060;-64
2022/04/15 11:57:03;;;;;;;0.70;0.45;;;21.80;68.80;;;;;;4970612;28;20042;-64
2022/04/15 11:59:39;;;;;;;0.00;0.00;;;22.00;68.60;;;;;;4969952;28;20039;-64
2022/04/15 12:02:06;;;;;;;0.00;0.00;;;22.20;66.60;;;;;;4971246;28;20162;-64
2022/04/15 12:04:32;;;;;;;0.00;0.00;;;22.00;67.50;;;;;;4953772;28;20554;-64
2022/04/15 12:06:58;;;;;;;0.52;0.43;;;22.30;67.00;;;;;;4970288;28;20110;-63
2022/04/15 12:09:25;;;;;;;0.00;0.00;;;22.30;66.40;;;;;;4971021;28;20031;-64
2022/04/15 12:11:54;;;;;;;0.00;0.00;;;22.50;66.00;;;;;;4970835;28;20023;-64
2022/04/15 12:14:20;;;;;;;0.00;0.00;;;22.80;66.50;;;;;;4971045;28;20031;-64
2022/04/15 12:16:49;;;;;;;0.00;0.00;;;23.00;65.60;;;;;;4973286;28;20041;-64
2022/04/15 12:19:15;;;;;;;0.15;0.10;;;22.90;66.10;;;;;;4957965;28;20027;-64
2022/04/15 12:21:42;;;;;;;0.10;0.10;;;22.50;64.00;;;;;;4973089;28;20113;-64
2022/04/15 12:24:29;;;;;;;0.00;0.00;;;22.70;64.30;;;;;;4973394;28;20054;-64
2022/04/15 12:26:59;;;;;;;0.00;0.00;;;22.70;65.50;;;;;;4972765;28;20035;-64
2022/04/15 12:32:38;;;;;;;0.00;0.00;;;23.60;65.80;;;;;;4974525;28;20019;-64
2022/04/15 12:35:11;;;;;;;0.00;0.00;;;24.00;65.20;;;;;;4973470;28;20057;-64
2022/04/15 12:38:00;;;;;;;3.60;0.15;;;24.10;62.40;;;;;;4973371;28;20034;-64
2022/04/15 12:40:31;;;;;;;0.00;0.00;;;24.20;61.80;;;;;;4974111;28;20031;-64
2022/04/15 12:43:13;;;;;;;0.47;0.47;;;23.90;61.40;;;;;;4974403;28;20033;-64
2022/04/15 12:45:53;;;;;;;0.00;0.00;;;24.20;60.90;;;;;;4972887;28;20538;-64
2022/04/15 12:48:20;;;;;;;0.00;0.00;;;24.20;59.10;;;;;;4972427;28;20038;-64
2022/04/15 12:50:55;;;;;;;0.03;0.00;;;24.20;58.30;;;;;;4982282;28;20030;-64
2022/04/15 12:53:23;;;;;;;0.05;0.05;;;24.00;59.90;;;;;;4975993;28;20034;-64
2022/04/15 12:55:51;;;;;;;0.13;0.13;;;24.30;59.50;;;;;;4993293;28;20482;-64
2022/04/15 12:58:28;;;;;;;0.03;0.03;;;23.90;60.20;;;;;;4975217;28;20061;-64
2022/04/15 13:00:57;;;;;;;0.00;0.00;;;23.70;60.70;;;;;;4993659;28;20038;-64